Time;durP1;ratioP1;P1;durP2;ratioP2;P2;SDS_P1;SDS_P2;PMS_P1;PMS_P2;Temp;Humidity;BMP_temperature;BMP_pressure;BME280_temperature;BME280_humidity;BME280_pressure;Samples;Min_cycle;Max_cycle;Signal;HPM_P1;HPM_P2
2023/12/08 00:02:00;;;;;;;27.27;13.15;;;0.70;99.90;;;;;;5090119;28;20160;-82
2023/12/08 00:04:26;;;;;;;26.58;12.38;;;0.80;99.90;;;;;;5093839;28;20045;-81
2023/12/08 00:06:53;;;;;;;24.83;12.70;;;2.00;99.90;;;;;;5106022;28;20063;-82
2023/12/08 00:09:19;;;;;;;26.80;12.65;;;0.70;99.90;;;;;;5070363;28;20076;-81
2023/12/08 00:11:46;;;;;;;28.95;12.52;;;0.70;99.90;;;;;;5083252;28;20147;-81
2023/12/08 00:14:13;;;;;;;28.27;12.85;;;0.70;99.90;;;;;;5077721;28;20060;-81
2023/12/08 00:16:41;;;;;;;27.20;11.82;;;0.70;99.90;;;;;;5102377;28;20036;-81
2023/12/08 00:19:10;;;;;;;27.48;13.20;;;0.70;99.90;;;;;;5088471;28;20040;-82
2023/12/08 00:21:36;;;;;;;23.20;12.10;;;0.70;99.90;;;;;;5105091;28;20039;-81
2023/12/08 00:24:04;;;;;;;24.27;12.00;;;0.70;99.90;;;;;;5100930;28;20127;-81
2023/12/08 00:26:30;;;;;;;26.23;13.07;;;0.80;99.90;;;;;;5092282;28;20622;-83
2023/12/08 00:28:57;;;;;;;28.17;13.02;;;0.70;99.90;;;;;;5106675;28;20041;-82
2023/12/08 00:31:23;;;;;;;27.75;12.70;;;0.80;99.90;;;;;;5089123;28;20032;-82
2023/12/08 00:33:51;;;;;;;25.40;12.43;;;0.70;99.90;;;;;;5100180;28;20032;-82
2023/12/08 00:36:18;;;;;;;27.27;12.77;;;0.70;99.90;;;;;;5092527;28;20040;-82
2023/12/08 00:38:45;;;;;;;25.17;12.98;;;0.70;99.90;;;;;;5117716;28;20044;-82
2023/12/08 00:41:11;;;;;;;25.13;12.13;;;0.70;99.90;;;;;;5086998;28;20049;-82
2023/12/08 00:43:38;;;;;;;29.90;13.02;;;0.70;99.90;;;;;;5086379;28;20516;-81
2023/12/08 00:46:05;;;;;;;29.02;13.25;;;0.70;99.90;;;;;;5103579;28;20382;-82
2023/12/08 00:48:31;;;;;;;24.05;12.50;;;0.80;99.90;;;;;;5105795;28;20063;-81
2023/12/08 00:50:58;;;;;;;28.20;13.50;;;0.70;99.90;;;;;;5103463;28;20098;-81
2023/12/08 00:53:25;;;;;;;25.25;12.25;;;0.70;99.90;;;;;;5087796;28;20033;-82
2023/12/08 00:55:51;;;;;;;30.20;12.90;;;1.90;99.90;;;;;;5101068;28;20040;-82
2023/12/08 00:58:18;;;;;;;23.45;12.23;;;0.80;99.90;;;;;;5089495;28;20044;-82
2023/12/08 01:00:45;;;;;;;28.38;13.52;;;0.80;99.90;;;;;;5102736;28;20047;-81
2023/12/08 01:03:12;;;;;;;23.75;12.88;;;0.70;99.90;;;;;;5089785;28;20037;-82
2023/12/08 01:05:39;;;;;;;26.73;12.13;;;0.80;99.90;;;;;;5102573;28;20519;-82
2023/12/08 01:08:05;;;;;;;27.58;13.02;;;1.40;99.90;;;;;;5106202;28;20048;-82
2023/12/08 01:10:32;;;;;;;23.35;12.40;;;0.70;99.90;;;;;;5089351;28;20037;-82
2023/12/08 01:12:58;;;;;;;25.48;12.57;;;0.70;99.90;;;;;;5089627;28;20039;-82
2023/12/08 01:15:25;;;;;;;26.55;13.52;;;0.70;99.90;;;;;;5089697;28;20871;-82
2023/12/08 01:17:52;;;;;;;25.45;13.10;;;0.70;99.90;;;;;;5115749;28;20078;-81
2023/12/08 01:20:18;;;;;;;26.85;13.45;;;0.70;99.90;;;;;;5094898;28;20040;-82
2023/12/08 01:22:45;;;;;;;24.77;12.80;;;0.70;99.90;;;;;;5109698;28;20113;-82
2023/12/08 01:25:12;;;;;;;26.60;13.50;;;0.70;99.90;;;;;;5090311;28;20048;-82
2023/12/08 01:27:38;;;;;;;27.98;13.48;;;1.70;99.90;;;;;;5081861;28;20060;-82
2023/12/08 01:30:06;;;;;;;26.40;13.00;;;0.70;99.90;;;;;;5100382;28;20037;-81
2023/12/08 01:32:33;;;;;;;25.48;12.63;;;0.70;99.90;;;;;;5102623;28;20496;-82
2023/12/08 01:35:00;;;;;;;27.88;13.70;;;0.70;99.90;;;;;;5102327;28;20048;-82
2023/12/08 01:37:26;;;;;;;27.40;13.02;;;0.70;99.90;;;;;;5088787;28;20492;-82
2023/12/08 01:39:53;;;;;;;26.13;11.85;;;0.70;99.90;;;;;;5084148;28;20094;-82
2023/12/08 01:42:19;;;;;;;24.73;13.30;;;0.70;99.90;;;;;;5093628;28;20174;-82
2023/12/08 01:44:46;;;;;;;26.90;13.90;;;0.70;99.90;;;;;;5106615;28;20043;-82
2023/12/08 01:47:13;;;;;;;30.10;13.75;;;0.70;99.90;;;;;;5086260;28;20493;-82
2023/12/08 01:49:40;;;;;;;27.25;13.57;;;0.80;99.90;;;;;;5097007;28;20459;-81
2023/12/08 01:52:09;;;;;;;24.08;12.65;;;0.80;99.90;;;;;;5100414;28;20048;-82
2023/12/08 01:54:35;;;;;;;24.25;12.45;;;0.80;99.90;;;;;;5107434;28;20037;-81
2023/12/08 01:57:02;;;;;;;24.63;11.68;;;0.80;99.90;;;;;;5109028;28;20043;-82
2023/12/08 01:59:30;;;;;;;24.48;12.57;;;0.80;99.90;;;;;;5092288;28;20044;-82
2023/12/08 02:01:58;;;;;;;24.80;12.43;;;1.80;99.90;;;;;;5080008;28;20037;-82
2023/12/08 02:04:25;;;;;;;25.00;11.73;;;0.80;99.90;;;;;;5085771;28;20040;-82
2023/12/08 02:06:53;;;;;;;24.55;12.57;;;0.80;99.90;;;;;;5116007;28;20059;-82
2023/12/08 02:09:20;;;;;;;26.00;12.00;;;0.80;99.90;;;;;;5091971;28;20127;-82
2023/12/08 02:11:47;;;;;;;25.42;12.35;;;1.30;99.90;;;;;;5092012;28;20044;-82
2023/12/08 02:14:15;;;;;;;21.98;11.63;;;0.80;99.90;;;;;;5108658;28;20029;-82
2023/12/08 02:16:50;;;;;;;24.50;11.70;;;0.80;99.90;;;;;;5104858;28;20055;-82
2023/12/08 02:19:17;;;;;;;24.67;12.40;;;0.90;99.90;;;;;;5082758;28;20037;-82
2023/12/08 02:21:44;;;;;;;23.70;11.57;;;0.80;99.90;;;;;;5088275;28;20507;-82
2023/12/08 02:24:11;;;;;;;27.50;11.98;;;0.90;99.90;;;;;;5092141;28;20032;-82
2023/12/08 02:26:38;;;;;;;23.48;12.48;;;0.90;99.90;;;;;;5092081;28;20105;-82
2023/12/08 02:29:09;;;;;;;22.25;11.82;;;0.90;99.90;;;;;;5091725;28;20024;-81
2023/12/08 02:32:00;;;;;;;26.70;12.35;;;1.90;99.90;;;;;;5110358;28;20043;-81
2023/12/08 02:34:28;;;;;;;22.13;10.40;;;0.90;99.90;;;;;;5096482;28;20060;-82
2023/12/08 02:36:57;;;;;;;22.52;10.45;;;0.90;99.90;;;;;;5084979;28;20068;-82
2023/12/08 02:39:26;;;;;;;22.67;11.25;;;0.90;99.90;;;;;;5094918;28;20039;-82
2023/12/08 02:41:53;;;;;;;24.08;10.88;;;0.90;99.90;;;;;;5084995;28;20061;-82
2023/12/08 02:44:20;;;;;;;23.42;12.23;;;0.90;99.90;;;;;;5108300;28;20040;-81
2023/12/08 02:46:46;;;;;;;24.80;10.55;;;0.90;99.90;;;;;;5091823;28;20496;-81
2023/12/08 02:49:13;;;;;;;24.38;11.23;;;0.90;99.90;;;;;;5105729;28;20068;-82
2023/12/08 02:51:40;;;;;;;21.60;10.90;;;1.90;99.90;;;;;;5091408;28;20036;-82
2023/12/08 02:54:06;;;;;;;20.15;10.75;;;0.90;99.90;;;;;;5090890;28;20040;-82
2023/12/08 02:56:33;;;;;;;22.67;10.73;;;0.90;99.90;;;;;;5091407;28;20040;-81
2023/12/08 02:58:59;;;;;;;21.67;10.13;;;0.90;99.90;;;;;;5091450;28;20044;-81
2023/12/08 03:01:26;;;;;;;19.45;10.70;;;0.90;99.90;;;;;;5116577;28;20131;-82
2023/12/08 03:03:53;;;;;;;25.77;11.45;;;0.90;99.90;;;;;;5108946;28;20032;-82
2023/12/08 03:06:19;;;;;;;20.38;10.98;;;0.90;99.90;;;;;;5093354;28;20079;-82
2023/12/08 03:08:46;;;;;;;19.80;9.57;;;0.90;99.90;;;;;;5090877;28;20045;-82
2023/12/08 03:11:13;;;;;;;23.02;11.55;;;0.90;99.90;;;;;;5090890;28;20485;-81
2023/12/08 03:13:39;;;;;;;22.08;10.75;;;0.90;99.90;;;;;;5090644;28;20040;-82
2023/12/08 03:16:07;;;;;;;20.75;9.65;;;1.80;99.90;;;;;;5107424;28;20033;-82
2023/12/08 03:18:33;;;;;;;24.17;10.82;;;0.90;99.90;;;;;;5090973;28;20052;-82
2023/12/08 03:21:00;;;;;;;20.65;10.52;;;0.90;99.90;;;;;;5100015;28;20048;-81
2023/12/08 03:23:26;;;;;;;21.02;11.27;;;0.90;99.90;;;;;;5098786;28;20051;-81
2023/12/08 03:25:53;;;;;;;19.98;10.65;;;0.90;99.90;;;;;;5093122;28;20493;-82
2023/12/08 03:28:19;;;;;;;20.58;9.82;;;0.90;99.90;;;;;;5090681;28;20040;-81
2023/12/08 03:30:46;;;;;;;22.77;11.40;;;0.90;99.90;;;;;;5090803;28;20075;-81
2023/12/08 03:33:13;;;;;;;20.73;10.27;;;0.90;99.90;;;;;;5090910;28;20086;-82
2023/12/08 03:35:39;;;;;;;20.27;10.32;;;0.90;99.90;;;;;;5107881;28;20071;-82
2023/12/08 03:38:06;;;;;;;19.38;9.60;;;0.90;99.90;;;;;;5103817;28;20179;-81
2023/12/08 03:40:33;;;;;;;19.70;10.38;;;0.90;99.90;;;;;;5107538;28;20048;-81
2023/12/08 03:42:59;;;;;;;20.35;10.55;;;0.90;99.90;;;;;;5113486;28;20389;-82
2023/12/08 03:45:26;;;;;;;21.50;10.32;;;0.90;99.90;;;;;;5110095;28;20032;-81
2023/12/08 03:47:53;;;;;;;20.17;9.75;;;0.90;99.90;;;;;;5072350;28;20040;-81
2023/12/08 03:50:19;;;;;;;20.67;10.23;;;0.90;99.90;;;;;;5099310;28;20091;-81
2023/12/08 03:52:46;;;;;;;20.58;10.75;;;0.90;99.90;;;;;;5103216;28;20121;-81
2023/12/08 03:55:12;;;;;;;18.10;10.13;;;0.90;99.90;;;;;;5098640;28;20112;-82
2023/12/08 03:57:39;;;;;;;17.33;9.23;;;1.00;99.90;;;;;;5091553;28;20032;-82
2023/12/08 04:00:06;;;;;;;19.13;10.05;;;1.70;99.90;;;;;;5090111;28;20047;-82
2023/12/08 04:02:33;;;;;;;20.55;10.70;;;0.90;99.90;;;;;;5106821;28;20044;-82
2023/12/08 04:04:59;;;;;;;22.92;9.93;;;0.90;99.90;;;;;;5094777;28;20109;-82
2023/12/08 04:07:26;;;;;;;19.83;9.88;;;1.00;99.90;;;;;;5090021;28;20178;-82
2023/12/08 04:09:53;;;;;;;19.27;10.18;;;1.00;99.90;;;;;;5106576;28;20040;-81
2023/12/08 04:12:20;;;;;;;21.27;10.73;;;1.00;99.90;;;;;;5084187;28;20066;-82
2023/12/08 04:14:46;;;;;;;20.58;10.25;;;2.10;99.90;;;;;;5085394;28;20040;-82
2023/12/08 04:17:13;;;;;;;18.05;9.82;;;1.00;99.90;;;;;;5077009;28;20048;-82
2023/12/08 04:19:40;;;;;;;20.52;10.30;;;1.00;99.90;;;;;;5089805;28;20063;-82
2023/12/08 04:22:06;;;;;;;19.02;9.95;;;1.80;99.90;;;;;;5094852;28;20060;-81
2023/12/08 04:24:33;;;;;;;19.95;9.75;;;1.00;99.90;;;;;;5103878;28;20040;-82
2023/12/08 04:27:00;;;;;;;20.73;10.65;;;1.90;99.90;;;;;;5123796;28;20405;-82
2023/12/08 04:29:26;;;;;;;20.90;9.63;;;1.00;99.90;;;;;;5096854;28;20036;-81
2023/12/08 04:31:53;;;;;;;17.95;9.50;;;2.10;99.90;;;;;;5092418;28;20056;-82
2023/12/08 04:34:20;;;;;;;18.45;9.90;;;1.10;99.90;;;;;;5083434;28;20537;-82
2023/12/08 04:36:46;;;;;;;19.35;9.55;;;1.10;99.90;;;;;;5098348;28;20093;-82
2023/12/08 04:39:13;;;;;;;18.95;9.13;;;1.20;99.90;;;;;;5096100;28;20043;-82
2023/12/08 04:41:39;;;;;;;19.92;10.40;;;1.10;99.90;;;;;;5079604;28;21160;-82
2023/12/08 04:44:06;;;;;;;18.65;9.23;;;1.10;99.90;;;;;;5084197;28;20040;-82
2023/12/08 04:46:33;;;;;;;18.13;9.60;;;2.20;99.90;;;;;;5085104;28;20098;-81
2023/12/08 04:48:59;;;;;;;21.40;10.30;;;1.40;99.90;;;;;;5085211;28;20033;-82
2023/12/08 04:51:26;;;;;;;18.45;9.45;;;1.70;99.90;;;;;;5098940;28;20029;-82
2023/12/08 04:53:52;;;;;;;20.20;9.35;;;2.00;99.90;;;;;;5083726;28;20033;-82
2023/12/08 04:56:19;;;;;;;20.70;10.05;;;1.00;99.90;;;;;;5089211;28;20040;-81
2023/12/08 04:58:47;;;;;;;19.00;9.27;;;1.90;99.90;;;;;;5089855;28;20091;-81
2023/12/08 05:01:14;;;;;;;22.58;10.00;;;1.00;99.90;;;;;;5076593;28;20033;-81
2023/12/08 05:03:41;;;;;;;17.23;9.35;;;0.90;99.90;;;;;;5093538;28;20118;-81
2023/12/08 05:06:08;;;;;;;19.27;9.82;;;0.90;99.90;;;;;;5101866;28;20044;-81
2023/12/08 05:08:35;;;;;;;19.83;9.75;;;1.30;99.90;;;;;;5075025;28;20037;-81
2023/12/08 05:11:02;;;;;;;20.23;10.43;;;0.80;99.90;;;;;;5085636;28;20070;-81
2023/12/08 05:13:29;;;;;;;19.98;9.68;;;0.80;99.90;;;;;;5125963;28;20504;-81
2023/12/08 05:15:56;;;;;;;20.17;10.45;;;0.80;99.90;;;;;;5101108;28;20041;-81
2023/12/08 05:18:22;;;;;;;19.88;9.80;;;1.70;99.90;;;;;;5111481;28;20041;-81
2023/12/08 05:20:49;;;;;;;21.30;10.90;;;0.70;99.90;;;;;;5130607;28;20044;-81
2023/12/08 05:23:16;;;;;;;23.48;11.80;;;0.70;99.90;;;;;;5084267;28;20041;-81
2023/12/08 05:25:42;;;;;;;18.75;9.90;;;1.30;99.90;;;;;;5093163;28;20037;-81
2023/12/08 05:28:09;;;;;;;20.10;10.95;;;0.70;99.90;;;;;;5089744;28;20178;-81
2023/12/08 05:30:35;;;;;;;20.00;10.40;;;0.70;99.90;;;;;;5083248;28;20053;-81
2023/12/08 05:33:02;;;;;;;19.58;10.13;;;0.60;99.90;;;;;;5093315;28;20037;-81
2023/12/08 05:35:29;;;;;;;20.35;10.90;;;0.70;99.90;;;;;;5103617;28;20040;-81
2023/12/08 05:37:55;;;;;;;22.90;10.25;;;0.60;99.90;;;;;;5111943;28;20044;-81
2023/12/08 05:40:23;;;;;;;20.77;10.80;;;0.60;99.90;;;;;;5092466;28;20024;-81
2023/12/08 05:42:50;;;;;;;24.00;10.57;;;1.70;99.90;;;;;;5092891;28;20515;-81
2023/12/08 05:45:17;;;;;;;21.83;10.57;;;0.60;99.90;;;;;;5092672;28;20037;-81
2023/12/08 05:47:44;;;;;;;22.42;10.70;;;0.60;99.90;;;;;;5084953;28;20093;-81
2023/12/08 05:50:11;;;;;;;24.90;11.40;;;0.60;99.90;;;;;;5108679;28;20102;-81
2023/12/08 05:52:38;;;;;;;20.10;10.60;;;0.60;99.90;;;;;;5097587;28;20040;-81
2023/12/08 05:55:05;;;;;;;22.85;11.45;;;0.60;99.90;;;;;;5119085;28;20036;-81
2023/12/08 05:57:31;;;;;;;22.10;11.63;;;0.60;99.90;;;;;;5089690;28;20032;-81
2023/12/08 05:59:58;;;;;;;21.67;11.20;;;0.60;99.90;;;;;;5107639;28;20040;-81
2023/12/08 06:02:25;;;;;;;22.65;11.35;;;0.60;99.90;;;;;;5092375;28;20094;-81
2023/12/08 06:04:51;;;;;;;22.77;11.13;;;0.60;99.90;;;;;;5092298;28;20047;-81
2023/12/08 06:07:18;;;;;;;24.73;12.05;;;0.50;99.90;;;;;;5092190;28;20052;-81
2023/12/08 06:09:45;;;;;;;23.17;11.05;;;0.50;99.90;;;;;;5084549;28;20591;-81
2023/12/08 06:12:11;;;;;;;21.77;11.13;;;0.50;99.90;;;;;;5092125;28;20397;-81
2023/12/08 06:14:38;;;;;;;24.48;11.35;;;0.50;99.90;;;;;;5092054;28;20040;-81
2023/12/08 06:17:04;;;;;;;23.63;11.57;;;0.50;99.90;;;;;;5079039;28;20040;-81
2023/12/08 06:19:31;;;;;;;24.27;11.93;;;0.50;99.90;;;;;;5092392;28;20033;-81
2023/12/08 06:21:58;;;;;;;22.13;11.07;;;0.50;99.90;;;;;;5092275;28;20037;-81
2023/12/08 06:24:24;;;;;;;22.17;11.25;;;0.50;99.90;;;;;;5088488;28;20067;-81
2023/12/08 06:26:51;;;;;;;25.45;12.40;;;0.50;99.90;;;;;;5111457;28;20118;-81
2023/12/08 06:29:19;;;;;;;24.63;11.85;;;0.50;99.90;;;;;;5107602;28;20041;-81
2023/12/08 06:31:46;;;;;;;24.92;11.27;;;0.50;99.90;;;;;;5078891;28;20374;-81
2023/12/08 06:34:12;;;;;;;23.35;12.32;;;0.50;99.90;;;;;;5098088;28;20039;-81
2023/12/08 06:36:48;;;;;;;24.20;12.38;;;0.50;99.90;;;;;;5090419;28;20048;-81
2023/12/08 06:39:17;;;;;;;25.80;11.88;;;0.50;99.90;;;;;;5107108;28;20447;-81
2023/12/08 06:41:44;;;;;;;23.23;11.68;;;0.50;99.90;;;;;;5097205;28;20075;-81
2023/12/08 06:44:11;;;;;;;25.90;12.23;;;1.10;99.90;;;;;;5100158;28;20052;-81
2023/12/08 06:46:38;;;;;;;26.10;12.48;;;0.40;99.90;;;;;;5097060;28;20681;-81
2023/12/08 06:49:05;;;;;;;26.90;12.38;;;0.40;99.90;;;;;;5085092;28;20104;-81
2023/12/08 06:51:34;;;;;;;23.65;11.68;;;1.40;99.90;;;;;;5096864;28;20438;-81
2023/12/08 06:54:02;;;;;;;24.73;12.35;;;0.50;99.90;;;;;;5114185;28;20037;-81
2023/12/08 06:56:29;;;;;;;28.00;12.05;;;0.50;99.90;;;;;;5108170;28;20043;-81
2023/12/08 06:58:56;;;;;;;26.38;12.55;;;0.40;99.90;;;;;;5108038;28;20055;-81
2023/12/08 07:01:23;;;;;;;26.52;12.40;;;0.60;99.90;;;;;;5099279;28;20070;-81
2023/12/08 07:03:50;;;;;;;25.60;13.60;;;0.50;99.90;;;;;;5108630;28;20040;-81
2023/12/08 07:06:17;;;;;;;26.92;12.20;;;0.50;99.90;;;;;;5099612;28;20055;-81
2023/12/08 07:08:43;;;;;;;26.48;11.75;;;1.20;99.90;;;;;;5105920;28;20060;-81
2023/12/08 07:11:10;;;;;;;25.38;12.27;;;1.20;99.90;;;;;;5097451;28;20044;-81
2023/12/08 07:13:37;;;;;;;25.35;12.88;;;0.50;99.90;;;;;;5107581;28;20496;-81
2023/12/08 07:16:07;;;;;;;26.77;13.13;;;0.50;99.90;;;;;;5091039;28;20051;-81
2023/12/08 07:18:36;;;;;;;25.15;12.10;;;0.40;99.90;;;;;;5090849;28;20044;-81
2023/12/08 07:21:03;;;;;;;26.33;11.68;;;0.50;99.90;;;;;;5098905;28;20080;-81
2023/12/08 07:23:30;;;;;;;22.27;11.02;;;0.50;99.90;;;;;;5090933;28;20110;-81
2023/12/08 07:25:57;;;;;;;25.10;12.10;;;0.40;99.90;;;;;;5101011;28;20035;-81
2023/12/08 07:28:23;;;;;;;25.88;12.52;;;0.50;99.90;;;;;;5107578;28;20040;-81
2023/12/08 07:30:50;;;;;;;26.58;12.45;;;0.40;99.90;;;;;;5089736;28;20033;-81
2023/12/08 07:33:17;;;;;;;25.58;12.02;;;0.60;99.90;;;;;;5115164;28;20040;-81
2023/12/08 07:35:43;;;;;;;23.67;11.82;;;0.40;99.90;;;;;;5112509;28;20037;-81
2023/12/08 07:38:10;;;;;;;29.17;13.15;;;0.50;99.90;;;;;;5091724;28;20067;-81
2023/12/08 07:40:36;;;;;;;29.13;13.15;;;0.60;99.90;;;;;;5098588;28;20560;-81
2023/12/08 07:43:03;;;;;;;28.70;12.73;;;0.50;99.90;;;;;;5090096;28;20036;-81
2023/12/08 07:45:30;;;;;;;25.38;13.07;;;0.40;99.90;;;;;;5087421;28;20045;-81
2023/12/08 07:47:57;;;;;;;27.23;13.65;;;0.40;99.90;;;;;;5080586;28;20044;-81
2023/12/08 07:50:24;;;;;;;29.80;13.25;;;0.40;99.90;;;;;;5086398;28;20024;-81
2023/12/08 07:52:51;;;;;;;27.15;12.32;;;0.40;99.90;;;;;;5084095;28;20029;-81
2023/12/08 07:55:19;;;;;;;27.60;13.07;;;0.40;99.90;;;;;;5088719;28;20115;-81
2023/12/08 07:57:46;;;;;;;28.65;13.68;;;0.40;99.90;;;;;;5098580;28;20043;-81
2023/12/08 08:00:13;;;;;;;27.42;12.77;;;0.40;99.90;;;;;;5087301;28;20040;-81
2023/12/08 08:02:39;;;;;;;28.77;13.35;;;0.40;99.90;;;;;;5089586;28;20084;-81
2023/12/08 08:05:06;;;;;;;27.77;12.85;;;0.50;99.90;;;;;;5092426;28;20186;-81
2023/12/08 08:07:33;;;;;;;26.88;12.05;;;0.50;99.90;;;;;;5089939;28;20147;-82
2023/12/08 08:10:01;;;;;;;31.13;12.80;;;0.50;99.90;;;;;;5088556;28;20098;-81
2023/12/08 08:12:28;;;;;;;26.33;12.68;;;0.50;99.90;;;;;;5086921;28;20041;-82
2023/12/08 08:14:54;;;;;;;27.65;13.18;;;0.50;99.90;;;;;;5085975;28;20037;-82
2023/12/08 08:17:21;;;;;;;29.20;13.07;;;0.50;99.90;;;;;;5089497;28;20040;-82
2023/12/08 08:19:48;;;;;;;32.10;14.25;;;0.70;99.90;;;;;;5086472;28;20544;-83
2023/12/08 08:22:15;;;;;;;28.08;13.73;;;0.60;99.90;;;;;;5082541;28;20040;-82
2023/12/08 08:24:42;;;;;;;29.08;12.88;;;0.80;99.90;;;;;;5083120;28;20047;-81
2023/12/08 08:27:09;;;;;;;27.75;12.88;;;0.60;99.90;;;;;;5090509;28;20090;-81
2023/12/08 08:29:36;;;;;;;28.60;12.70;;;0.60;99.90;;;;;;5102823;28;20033;-81
2023/12/08 08:32:03;;;;;;;32.83;13.43;;;0.50;99.90;;;;;;5105643;28;20062;-81
2023/12/08 08:34:29;;;;;;;28.10;12.93;;;0.50;99.90;;;;;;5089463;28;20041;-82
2023/12/08 08:36:56;;;;;;;27.05;12.88;;;0.50;99.90;;;;;;5102570;28;20115;-81
2023/12/08 08:39:23;;;;;;;24.73;12.63;;;0.60;99.90;;;;;;5085177;28;20048;-82
2023/12/08 08:41:50;;;;;;;29.58;13.88;;;0.60;99.90;;;;;;5101488;28;20055;-81
2023/12/08 08:44:16;;;;;;;32.38;13.38;;;0.60;99.90;;;;;;5086394;28;20413;-81
2023/12/08 08:46:44;;;;;;;31.05;12.43;;;0.60;99.90;;;;;;5089157;28;20596;-81
2023/12/08 08:49:11;;;;;;;28.50;13.07;;;0.60;99.90;;;;;;5104320;28;20059;-81
2023/12/08 08:51:38;;;;;;;26.95;13.00;;;0.60;99.90;;;;;;5090243;28;20547;-81
2023/12/08 08:54:05;;;;;;;30.10;12.88;;;1.90;99.90;;;;;;5110431;28;20040;-81
2023/12/08 08:56:34;;;;;;;28.13;13.38;;;1.40;99.90;;;;;;5097138;28;20040;-81
2023/12/08 08:59:00;;;;;;;31.67;14.43;;;0.60;99.90;;;;;;5093846;28;20040;-80
2023/12/08 09:01:27;;;;;;;28.80;13.68;;;0.60;99.90;;;;;;5093712;28;20045;-81
2023/12/08 09:03:54;;;;;;;26.25;12.57;;;1.90;99.90;;;;;;5106240;28;20036;-81
2023/12/08 09:06:20;;;;;;;28.95;13.40;;;0.60;99.90;;;;;;5093263;28;20492;-81
2023/12/08 09:08:47;;;;;;;27.70;13.13;;;0.60;99.90;;;;;;5093620;28;20493;-80
2023/12/08 09:11:14;;;;;;;25.33;13.32;;;1.40;99.90;;;;;;5093826;28;20089;-81
2023/12/08 09:13:40;;;;;;;30.73;14.40;;;1.60;99.90;;;;;;5093517;28;20032;-80
2023/12/08 09:16:08;;;;;;;25.80;12.57;;;1.70;99.90;;;;;;5093869;28;20036;-81
2023/12/08 09:18:36;;;;;;;26.83;13.57;;;1.70;99.90;;;;;;5090153;28;20043;-81
2023/12/08 09:21:05;;;;;;;30.48;13.43;;;0.70;99.90;;;;;;5073784;28;20076;-81
2023/12/08 09:23:31;;;;;;;28.27;13.23;;;0.70;99.90;;;;;;5057448;28;20129;-81
2023/12/08 09:26:01;;;;;;;29.92;13.75;;;0.70;99.90;;;;;;5090410;28;20041;-81
2023/12/08 09:28:28;;;;;;;27.70;13.10;;;0.70;99.90;;;;;;5073483;28;20075;-81
2023/12/08 09:30:55;;;;;;;29.85;14.25;;;1.40;99.90;;;;;;5103135;28;20075;-81
2023/12/08 09:33:23;;;;;;;29.75;13.57;;;0.70;99.90;;;;;;5093466;28;20079;-81
2023/12/08 09:35:51;;;;;;;25.30;13.02;;;0.70;99.90;;;;;;5093557;28;20032;-81
2023/12/08 09:38:18;;;;;;;31.10;14.35;;;0.70;99.90;;;;;;5093536;28;20080;-80
2023/12/08 09:40:45;;;;;;;28.13;13.48;;;0.70;99.90;;;;;;5078732;28;20099;-81
2023/12/08 09:43:18;;;;;;;28.08;12.88;;;1.80;99.90;;;;;;5073149;28;20087;-81
2023/12/08 09:45:47;;;;;;;28.42;13.65;;;1.50;99.90;;;;;;5088720;28;20098;-81
2023/12/08 09:48:13;;;;;;;29.73;13.68;;;1.60;99.90;;;;;;5083240;28;20052;-81
2023/12/08 09:50:43;;;;;;;27.73;12.93;;;2.00;99.90;;;;;;5107007;28;20028;-81
2023/12/08 09:53:13;;;;;;;30.30;13.77;;;1.90;99.90;;;;;;5110132;28;20083;-81
2023/12/08 09:55:43;;;;;;;29.50;13.20;;;1.90;99.90;;;;;;5093150;28;20051;-81
2023/12/08 09:58:12;;;;;;;29.95;13.38;;;1.80;99.90;;;;;;5093007;28;20037;-81
2023/12/08 10:00:39;;;;;;;28.90;13.15;;;0.80;99.90;;;;;;5081139;28;20520;-81
2023/12/08 10:03:07;;;;;;;31.25;14.02;;;0.80;99.90;;;;;;5112253;28;20113;-81
2023/12/08 10:05:34;;;;;;;28.52;13.48;;;0.80;99.90;;;;;;5096974;28;20061;-81
2023/12/08 10:08:01;;;;;;;30.20;13.75;;;0.80;99.90;;;;;;5093044;28;20057;-81
2023/12/08 10:10:28;;;;;;;28.48;13.65;;;0.80;99.90;;;;;;5109252;28;20040;-81
2023/12/08 10:12:55;;;;;;;29.30;13.23;;;0.90;99.90;;;;;;5109557;28;20496;-81
2023/12/08 10:15:22;;;;;;;29.05;13.27;;;0.90;99.90;;;;;;5095845;28;20485;-81
2023/12/08 10:17:51;;;;;;;26.60;13.20;;;2.10;99.90;;;;;;5092371;28;20473;-81
2023/12/08 10:20:20;;;;;;;27.92;13.30;;;1.50;99.90;;;;;;5075984;28;20043;-81
2023/12/08 10:22:50;;;;;;;29.45;14.23;;;1.60;99.90;;;;;;5092786;28;20086;-79
2023/12/08 10:25:22;;;;;;;26.38;12.73;;;0.90;99.90;;;;;;5109686;28;20091;-80
2023/12/08 10:27:51;;;;;;;28.23;13.70;;;0.80;99.90;;;;;;5092603;28;20370;-80
2023/12/08 10:30:19;;;;;;;31.73;14.27;;;0.90;99.90;;;;;;5088480;28;20045;-80
2023/12/08 10:32:46;;;;;;;27.15;13.98;;;1.90;99.90;;;;;;5092311;28;20039;-80
2023/12/08 10:35:13;;;;;;;29.30;12.93;;;0.80;99.90;;;;;;5092229;28;20043;-80
2023/12/08 10:37:40;;;;;;;26.58;13.00;;;0.90;99.90;;;;;;5107561;28;20039;-80
2023/12/08 10:40:09;;;;;;;28.23;13.45;;;1.40;99.90;;;;;;5119969;28;20127;-80
2023/12/08 10:42:38;;;;;;;28.42;12.70;;;0.90;99.90;;;;;;5071987;28;20128;-80
2023/12/08 10:45:13;;;;;;;26.80;13.02;;;0.90;99.90;;;;;;5076585;28;20032;-80
2023/12/08 10:47:40;;;;;;;27.25;13.48;;;0.90;99.90;;;;;;5092596;28;20047;-80
2023/12/08 10:50:09;;;;;;;30.10;14.20;;;2.30;99.90;;;;;;5078072;28;20047;-80
2023/12/08 10:52:40;;;;;;;30.10;13.50;;;0.90;99.90;;;;;;5091674;28;20115;-80
2023/12/08 10:55:08;;;;;;;30.08;13.45;;;0.90;99.90;;;;;;5091575;28;20040;-80
2023/12/08 10:57:36;;;;;;;28.80;13.90;;;0.90;99.90;;;;;;5091008;28;20048;-81
2023/12/08 11:00:12;;;;;;;29.38;13.75;;;1.00;99.90;;;;;;5091292;28;20047;-80
2023/12/08 11:02:42;;;;;;;30.45;13.45;;;1.00;99.90;;;;;;5081864;28;20452;-81
2023/12/08 11:05:12;;;;;;;27.45;13.57;;;1.70;99.90;;;;;;5120377;28;20044;-80
2023/12/08 11:07:39;;;;;;;30.05;12.98;;;1.60;99.90;;;;;;5128606;28;20108;-81
2023/12/08 11:10:09;;;;;;;28.98;14.43;;;1.00;99.90;;;;;;5090290;28;20039;-80
2023/12/08 11:12:42;;;;;;;29.90;13.68;;;1.00;99.90;;;;;;5085746;28;20044;-81
2023/12/08 11:15:16;;;;;;;30.00;14.45;;;2.20;99.90;;;;;;5090510;28;20120;-81
2023/12/08 11:18:05;;;;;;;28.45;14.27;;;1.00;99.90;;;;;;5107486;28;20126;-80
2023/12/08 11:20:33;;;;;;;27.48;12.80;;;2.10;99.90;;;;;;5095439;28;20398;-80
2023/12/08 11:22:59;;;;;;;30.10;14.13;;;1.00;99.90;;;;;;5090526;28;20040;-80
2023/12/08 11:25:40;;;;;;;31.25;14.07;;;1.00;99.90;;;;;;5087970;28;20082;-80
2023/12/08 11:28:27;;;;;;;29.48;14.00;;;1.00;99.90;;;;;;5076286;28;20041;-81
2023/12/08 11:31:01;;;;;;;29.58;15.07;;;1.10;99.90;;;;;;5086157;28;20040;-81
2023/12/08 11:33:43;;;;;;;26.42;13.00;;;1.10;99.90;;;;;;5090663;28;20119;-81
2023/12/08 11:36:11;;;;;;;29.45;13.82;;;1.00;99.90;;;;;;5098813;28;20040;-80
2023/12/08 11:38:38;;;;;;;30.75;13.75;;;1.10;99.90;;;;;;5090853;28;20051;-80
2023/12/08 11:41:15;;;;;;;26.77;13.95;;;1.10;99.90;;;;;;5107515;28;20038;-80
2023/12/08 11:43:44;;;;;;;28.52;14.45;;;1.50;99.90;;;;;;5090738;28;20404;-80
2023/12/08 11:46:12;;;;;;;31.83;14.35;;;1.10;99.90;;;;;;5086956;28;20055;-80
2023/12/08 11:48:41;;;;;;;33.65;13.68;;;1.40;99.90;;;;;;5097056;28;20048;-80
2023/12/08 11:51:07;;;;;;;29.77;14.88;;;1.10;99.90;;;;;;5097821;28;20044;-81
2023/12/08 11:53:57;;;;;;;30.02;15.45;;;1.00;99.90;;;;;;5096047;28;20032;-81
2023/12/08 11:56:43;;;;;;;26.38;13.88;;;1.10;99.90;;;;;;5085835;28;20060;-81
2023/12/08 11:59:27;;;;;;;33.45;14.38;;;1.50;99.90;;;;;;5087069;28;20467;-81
2023/12/08 12:01:56;;;;;;;30.58;13.77;;;1.90;99.90;;;;;;5092979;28;20047;-82
2023/12/08 12:04:23;;;;;;;34.83;15.18;;;2.10;99.90;;;;;;5073889;28;20040;-81
2023/12/08 12:06:53;;;;;;;33.40;14.50;;;2.40;99.90;;;;;;5092634;28;20064;-81
2023/12/08 12:09:20;;;;;;;30.00;13.90;;;2.00;99.90;;;;;;5070166;28;20045;-81
2023/12/08 12:11:49;;;;;;;29.63;13.60;;;1.10;99.90;;;;;;5117934;28;20044;-81
2023/12/08 12:14:20;;;;;;;30.75;14.55;;;2.30;99.90;;;;;;5094270;28;20036;-81
2023/12/08 12:16:47;;;;;;;29.33;14.45;;;1.10;99.90;;;;;;5127641;28;20127;-81
2023/12/08 12:19:14;;;;;;;30.75;14.55;;;1.10;99.90;;;;;;5110650;28;20051;-81
2023/12/08 12:21:45;;;;;;;30.63;14.48;;;1.20;99.90;;;;;;5092819;28;20542;-81
2023/12/08 12:24:14;;;;;;;30.63;14.35;;;1.20;99.90;;;;;;5074127;28;20037;-80
2023/12/08 12:26:41;;;;;;;32.78;15.57;;;1.20;99.90;;;;;;5089401;28;20044;-81
2023/12/08 12:29:08;;;;;;;35.25;14.95;;;1.20;99.90;;;;;;5087541;28;20040;-81
2023/12/08 12:31:34;;;;;;;38.50;14.90;;;2.40;99.90;;;;;;5107119;28;20036;-81
2023/12/08 12:34:01;;;;;;;31.05;14.35;;;2.30;99.90;;;;;;5092968;28;20499;-81
2023/12/08 12:36:28;;;;;;;39.63;14.48;;;2.50;99.90;;;;;;5112558;28;20037;-81
2023/12/08 12:38:56;;;;;;;41.63;15.63;;;1.20;99.90;;;;;;5086580;28;20049;-81
2023/12/08 12:41:24;;;;;;;42.28;15.27;;;1.20;99.90;;;;;;5097347;28;20049;-81